createdAt,value
2022-08-24T00:01:08.681Z,755.00
2022-08-24T00:06:05.008Z,773.60
2022-08-24T00:11:05.349Z,887.60
2022-08-24T00:16:03.546Z,805.30
2022-08-24T00:21:02.756Z,863.40
2022-08-24T00:26:01.914Z,740.90
2022-08-24T00:31:01.102Z,743.80
2022-08-24T00:36:02.323Z,738.20
2022-08-24T00:41:00.591Z,714.60
2022-08-24T00:45:58.860Z,696.30
2022-08-24T00:50:58.098Z,714.20
2022-08-24T00:55:57.434Z,745.50
2022-08-24T01:00:56.727Z,734.00
2022-08-24T01:05:54.898Z,685.70
2022-08-24T01:10:55.108Z,706.10
2022-08-24T01:15:54.340Z,715.10
2022-08-24T01:20:53.577Z,789.40
2022-08-24T01:25:52.791Z,792.00
2022-08-24T01:30:53.112Z,810.80
2022-08-24T01:35:52.422Z,818.70
2022-08-24T01:40:50.805Z,887.00
2022-08-24T01:45:50.963Z,783.50
2022-08-24T01:50:49.114Z,759.80
2022-08-24T01:55:48.250Z,761.70
2022-08-24T02:00:46.578Z,822.10
2022-08-24T02:05:48.920Z,822.70
2022-08-24T02:10:52.945Z,762.50
2022-08-24T02:15:48.646Z,816.80
2022-08-24T02:20:44.827Z,727.50
2022-08-24T02:25:43.499Z,784.40
2022-08-24T02:30:43.889Z,760.40
2022-08-24T02:35:45.992Z,762.90
2022-08-24T02:40:43.054Z,796.10
2022-08-24T02:45:41.545Z,854.80
2022-08-24T02:50:41.468Z,851.70
2022-08-24T02:55:38.392Z,930.30
2022-08-24T03:00:39.601Z,856.00
2022-08-24T03:05:39.739Z,922.10
2022-08-24T03:10:37.927Z,818.60
2022-08-24T03:15:36.161Z,750.40
2022-08-24T03:20:36.373Z,757.00
2022-08-24T03:25:34.556Z,871.20
2022-08-24T03:30:34.762Z,807.10
2022-08-24T03:35:32.924Z,777.60
2022-08-24T03:40:33.098Z,866.20
2022-08-24T03:45:32.381Z,874.30
2022-08-24T03:50:32.551Z,850.00
2022-08-24T03:55:29.686Z,820.80
2022-08-24T04:00:29.019Z,944.50
2022-08-24T04:05:28.000Z,910.90
2022-08-24T04:10:28.216Z,805.60
2022-08-24T04:15:26.360Z,866.70
2022-08-24T04:20:25.574Z,884.50
2022-08-24T04:25:28.729Z,899.50
2022-08-24T04:30:24.135Z,832.30
2022-08-24T04:35:24.326Z,799.80
2022-08-24T04:40:23.600Z,757.90
2022-08-24T04:45:22.811Z,810.10
2022-08-24T04:50:21.988Z,850.80
2022-08-24T04:55:20.184Z,921.90
2022-08-24T05:00:19.387Z,852.80
2022-08-24T05:05:18.603Z,875.20
2022-08-24T05:10:17.780Z,870.50
2022-08-24T05:15:17.025Z,817.10
2022-08-24T05:20:16.249Z,828.20
2022-08-24T05:25:14.419Z,853.90
2022-08-24T05:30:14.704Z,962.70
2022-08-24T05:35:15.038Z,935.50
2022-08-24T05:40:13.401Z,887.30
2022-08-24T05:45:14.570Z,861.10
2022-08-24T05:50:11.885Z,999.90
2022-08-24T05:55:11.204Z,854.70
2022-08-24T06:00:10.535Z,814.10
2022-08-24T06:05:10.846Z,771.60
2022-08-24T06:10:34.820Z,853.00
2022-08-24T06:15:08.379Z,854.20
2022-08-24T06:20:08.504Z,915.10
2022-08-24T06:25:06.809Z,948.00
2022-08-24T06:30:07.121Z,915.90
2022-08-24T06:35:07.446Z,910.90
2022-08-24T06:40:04.694Z,751.30
2022-08-24T06:45:03.929Z,809.60
2022-08-24T06:50:03.085Z,902.20
2022-08-24T06:55:03.242Z,758.40
2022-08-24T07:00:01.431Z,732.30
2022-08-24T07:05:00.605Z,925.30
2022-08-24T07:09:59.727Z,943.90
2022-08-24T07:14:59.991Z,734.00
2022-08-24T07:19:59.321Z,700.20
2022-08-24T07:24:57.604Z,748.20
2022-08-24T07:30:23.174Z,768.70
2022-08-24T07:34:58.303Z,778.90
2022-08-24T07:39:55.460Z,736.80
2022-08-24T07:44:55.561Z,808.50
2022-08-24T07:49:53.882Z,786.10
2022-08-24T07:54:53.201Z,783.20
2022-08-24T07:59:52.512Z,691.10
2022-08-24T08:04:51.765Z,813.30
2022-08-24T08:09:50.074Z,822.30
2022-08-24T08:14:51.368Z,819.40
2022-08-24T08:19:49.611Z,794.30
2022-08-24T08:24:49.924Z,765.40
2022-08-24T08:29:48.205Z,733.20
2022-08-24T08:34:49.482Z,719.40
2022-08-24T08:39:49.944Z,730.90
2022-08-24T08:44:48.081Z,848.50
2022-08-24T08:49:46.181Z,707.80
2022-08-24T08:54:44.516Z,779.10
2022-08-24T08:59:44.137Z,789.80
2022-08-24T09:04:43.010Z,807.00
2022-08-24T09:09:42.228Z,626.20
2022-08-24T09:14:42.436Z,774.90
2022-08-24T09:19:40.630Z,758.20
2022-08-24T09:24:38.843Z,768.90
2022-08-24T09:29:40.069Z,735.30
2022-08-24T09:34:37.368Z,692.40
2022-08-24T09:39:37.535Z,724.20
2022-08-24T09:44:37.722Z,678.10
2022-08-24T09:49:35.894Z,765.70
2022-08-24T09:54:36.097Z,664.90
2022-08-24T09:59:35.291Z,745.20
2022-08-24T10:04:35.604Z,732.30
2022-08-24T10:09:32.662Z,669.40
2022-08-24T10:14:31.843Z,730.20
2022-08-24T10:19:31.023Z,799.50
2022-08-24T10:24:31.203Z,771.10
2022-08-24T10:29:30.353Z,742.30
2022-08-24T10:34:28.530Z,777.70
2022-08-24T10:39:28.693Z,746.70
2022-08-24T10:44:28.882Z,680.70
2022-08-24T10:49:27.332Z,740.90
2022-08-24T10:54:26.302Z,763.10
2022-08-24T10:59:25.469Z,733.30
2022-08-24T11:04:24.687Z,769.80
2022-08-24T11:09:24.847Z,848.80
2022-08-24T11:14:23.046Z,999.90
2022-08-24T11:19:21.228Z,999.90
2022-08-24T11:24:23.394Z,709.20
2022-08-24T11:29:21.558Z,839.70
2022-08-24T11:34:19.721Z,807.40
2022-08-24T11:39:17.903Z,695.50
2022-08-24T11:44:17.112Z,693.20
2022-08-24T11:49:17.335Z,704.10
2022-08-24T11:54:16.549Z,692.40
2022-08-24T11:59:14.776Z,651.90
2022-08-24T12:04:15.092Z,663.20
2022-08-24T12:09:13.393Z,620.60
2022-08-24T12:14:13.713Z,667.70
2022-08-24T12:19:13.005Z,719.70
2022-08-24T12:24:11.282Z,628.50
2022-08-24T12:29:11.591Z,670.50
2022-08-24T12:34:09.914Z,657.30
2022-08-24T12:39:09.202Z,675.10
2022-08-24T12:44:09.501Z,645.30
2022-08-24T12:49:08.849Z,547.60
2022-08-24T12:54:06.985Z,550.60
2022-08-24T12:59:06.352Z,549.90
2022-08-24T13:04:05.525Z,570.90
2022-08-24T13:09:04.678Z,516.20
2022-08-24T13:14:04.020Z,556.30
2022-08-24T13:19:04.167Z,531.30
2022-08-24T13:24:02.454Z,565.30
2022-08-24T13:29:02.723Z,545.80
2022-08-24T13:34:00.996Z,610.10
2022-08-24T13:39:01.322Z,627.30
2022-08-24T13:43:59.613Z,564.80
2022-08-24T13:48:59.903Z,595.70
2022-08-24T13:53:59.196Z,639.40
2022-08-24T13:58:58.492Z,551.40
2022-08-24T14:03:56.755Z,576.80
2022-08-24T14:08:56.101Z,619.30
2022-08-24T14:13:55.457Z,539.70
2022-08-24T14:18:55.517Z,635.00
2022-08-24T14:23:55.760Z,647.30
2022-08-24T14:28:52.870Z,548.50
2022-08-24T14:33:52.198Z,597.60
2022-08-24T14:38:55.391Z,580.20
2022-08-24T14:43:50.499Z,628.40
2022-08-24T14:48:49.821Z,669.20
2022-08-24T14:53:49.981Z,660.20
2022-08-24T14:58:48.297Z,688.70
2022-08-24T15:03:47.626Z,724.30
2022-08-24T15:08:46.979Z,722.80
2022-08-24T15:13:46.252Z,685.30
2022-08-24T15:18:45.436Z,729.50
2022-08-24T15:23:44.626Z,775.50
2022-08-24T15:28:55.408Z,789.30
2022-08-24T15:33:43.089Z,778.80
2022-08-24T15:38:43.257Z,821.80
2022-08-24T15:43:41.456Z,806.70
2022-08-24T15:48:42.621Z,801.90
2022-08-24T15:53:40.784Z,847.20
2022-08-24T15:58:38.964Z,790.80
2022-08-24T16:03:39.142Z,821.90
2022-08-24T16:08:40.427Z,770.50
2022-08-24T16:13:37.595Z,877.60
2022-08-24T16:18:35.785Z,872.70
2022-08-24T16:23:34.957Z,828.10
2022-08-24T16:28:34.195Z,853.00
2022-08-24T16:33:33.354Z,846.00
2022-08-24T16:38:34.551Z,871.80
2022-08-24T16:43:31.722Z,873.80
2022-08-24T16:48:31.931Z,895.30
2022-08-24T16:53:30.118Z,913.10
2022-08-24T16:58:31.358Z,827.40
2022-08-24T17:03:28.594Z,640.40
2022-08-24T17:08:27.810Z,642.10
2022-08-24T17:13:48.474Z,657.20
2022-08-24T17:18:28.274Z,627.20
2022-08-24T17:23:26.409Z,686.60
2022-08-24T17:28:24.610Z,779.40
2022-08-24T17:33:22.856Z,733.30
2022-08-24T17:38:23.101Z,643.20
2022-08-24T17:43:22.344Z,775.80
2022-08-24T17:48:22.579Z,774.50
2022-08-24T17:53:20.760Z,769.30
2022-08-24T17:58:19.948Z,705.60
2022-08-24T18:03:20.141Z,769.70
2022-08-24T18:08:20.321Z,702.40
2022-08-24T18:13:18.595Z,818.10
2022-08-24T18:18:17.790Z,914.50
2022-08-24T18:23:17.489Z,999.90
2022-08-24T18:28:16.272Z,999.90
2022-08-24T18:33:13.443Z,949.40
2022-08-24T18:38:15.638Z,829.40
2022-08-24T18:43:12.859Z,887.00
2022-08-24T18:48:13.220Z,901.10
2022-08-24T18:53:11.231Z,891.90
2022-08-24T18:58:11.427Z,830.60
2022-08-24T19:03:09.811Z,858.90
2022-08-24T19:08:11.957Z,862.60
2022-08-24T19:13:08.226Z,987.30
2022-08-24T19:18:07.570Z,958.10
2022-08-24T19:23:07.768Z,955.70
2022-08-24T19:28:06.990Z,918.10
2022-08-24T19:33:05.993Z,936.10
2022-08-24T19:38:05.354Z,999.90
2022-08-24T19:43:03.752Z,999.90
2022-08-24T19:48:03.005Z,999.90
2022-08-24T19:53:02.246Z,939.10
2022-08-24T19:58:03.279Z,884.40
2022-08-24T20:03:00.509Z,937.90
2022-08-24T20:07:59.797Z,881.40
2022-08-24T20:13:00.078Z,848.70
2022-08-24T20:17:59.315Z,886.10
2022-08-24T20:22:58.502Z,878.80
2022-08-24T20:28:18.514Z,986.10
2022-08-24T20:32:57.991Z,958.00
2022-08-24T20:37:56.449Z,877.70
2022-08-24T20:42:56.514Z,987.00
2022-08-24T20:47:54.723Z,949.90
2022-08-24T20:52:53.875Z,868.80
2022-08-24T20:57:53.171Z,941.30
2022-08-24T21:02:51.362Z,955.80
2022-08-24T21:07:51.721Z,926.30
2022-08-24T21:12:49.928Z,897.10
2022-08-24T21:17:49.082Z,985.50
2022-08-24T21:22:48.233Z,957.30
2022-08-24T21:27:47.395Z,988.20
2022-08-24T21:32:46.549Z,889.70
2022-08-24T21:37:45.716Z,999.90
2022-08-24T21:42:46.010Z,999.90
2022-08-24T21:47:44.303Z,902.30
2022-08-24T21:52:43.671Z,856.10
2022-08-24T21:57:43.770Z,905.00
2022-08-24T22:02:42.214Z,930.10
2022-08-24T22:07:41.397Z,939.30
2022-08-24T22:12:41.534Z,855.70
2022-08-24T22:17:41.667Z,905.20
2022-08-24T22:22:39.019Z,999.90
2022-08-24T22:27:39.161Z,999.90
2022-08-24T22:32:38.541Z,999.90
2022-08-24T22:37:37.864Z,904.90
2022-08-24T22:42:36.829Z,999.90
2022-08-24T22:47:37.132Z,999.90
2022-08-24T22:52:34.419Z,999.90
2022-08-24T22:57:34.592Z,999.90
2022-08-24T23:02:32.740Z,999.90
2022-08-24T23:07:31.888Z,897.70
2022-08-24T23:12:31.259Z,984.40
2022-08-24T23:17:31.437Z,999.90
2022-08-24T23:22:30.528Z,959.70
2022-08-24T23:27:37.653Z,864.10
2022-08-24T23:32:28.018Z,900.00
2022-08-24T23:37:27.352Z,935.80
2022-08-24T23:42:26.721Z,999.90
2022-08-24T23:47:26.830Z,991.40
2022-08-24T23:52:28.187Z,935.90
2022-08-24T23:57:26.437Z,884.00
